Time;durP1;ratioP1;P1;durP2;ratioP2;P2;SDS_P1;SDS_P2;PMS_P1;PMS_P2;Temp;Humidity;BMP_temperature;BMP_pressure;BME280_temperature;BME280_humidity;BME280_pressure;Samples;Min_cycle;Max_cycle;Signal;HPM_P1;HPM_P2
2024/02/08 00:00:47;;;;;;;;;28.00;26.00;;;;;;;;6487752;39;8937;-57
2024/02/08 00:06:49;;;;;;;;;27.00;26.00;;;;;;;;6487576;46;8966;-55
2024/02/08 00:12:51;;;;;;;;;29.25;26.00;;;;;;;;6488272;31;8925;-56
2024/02/08 00:18:55;;;;;;;;;29.50;29.00;;;;;;;;6487609;46;8943;-58
2024/02/08 00:24:58;;;;;;;;;33.00;30.50;;;;;;;;6488066;31;8963;-58
2024/02/08 00:31:06;;;;;;;;;32.50;27.25;;;;;;;;6488163;39;9503;-56
2024/02/08 00:37:09;;;;;;;;;33.75;30.25;;;;;;;;6488078;31;9130;-59
2024/02/08 00:43:11;;;;;;;;;25.75;24.50;;;;;;;;6488669;39;8900;-56
2024/02/08 00:49:13;;;;;;;;;30.50;26.75;;;;;;;;6488429;39;8872;-55
2024/02/08 00:55:15;;;;;;;;;31.75;27.00;;;;;;;;6487972;39;8959;-55
2024/02/08 01:01:18;;;;;;;;;31.00;28.25;;;;;;;;6487740;47;8899;-57
2024/02/08 01:07:23;;;;;;;;;36.25;32.75;;;;;;;;6487176;39;8928;-56
2024/02/08 01:13:27;;;;;;;;;29.75;28.25;;;;;;;;6488073;47;8876;-57
2024/02/08 01:19:31;;;;;;;;;28.25;24.00;;;;;;;;6487568;31;8888;-58
2024/02/08 01:25:34;;;;;;;;;33.25;32.25;;;;;;;;6487034;47;8891;-57
2024/02/08 01:31:38;;;;;;;;;30.50;28.25;;;;;;;;6487615;39;8896;-56
2024/02/08 01:37:40;;;;;;;;;33.00;31.25;;;;;;;;6487794;39;9001;-56
2024/02/08 01:43:42;;;;;;;;;30.75;26.75;;;;;;;;6489547;31;8872;-57
2024/02/08 01:49:47;;;;;;;;;33.25;29.50;;;;;;;;6488513;39;8962;-57
2024/02/08 01:55:49;;;;;;;;;31.50;30.00;;;;;;;;6490054;39;8853;-57
2024/02/08 02:01:56;;;;;;;;;31.25;28.00;;;;;;;;6488658;46;8938;-56
2024/02/08 02:07:58;;;;;;;;;29.25;28.00;;;;;;;;6489526;31;8908;-57
2024/02/08 02:14:04;;;;;;;;;33.50;28.00;;;;;;;;6490658;39;8895;-56
2024/02/08 02:20:11;;;;;;;;;27.00;27.00;;;;;;;;6489100;31;8849;-58
2024/02/08 02:26:15;;;;;;;;;36.25;31.25;;;;;;;;6560344;36;9004;-57
2024/02/08 02:32:21;;;;;;;;;31.00;29.00;;;;;;;;6490192;31;8884;-55
2024/02/08 02:38:24;;;;;;;;;30.50;25.25;;;;;;;;6489969;39;9559;-56
2024/02/08 02:44:29;;;;;;;;;27.25;26.50;;;;;;;;6490019;31;8850;-57
2024/02/08 02:50:40;;;;;;;;;39.00;32.25;;;;;;;;6488346;31;9784;-57
2024/02/08 02:56:47;;;;;;;;;33.25;31.75;;;;;;;;6488865;39;8910;-57
2024/02/08 03:02:51;;;;;;;;;38.00;30.50;;;;;;;;6489183;46;8917;-55
2024/02/08 03:08:57;;;;;;;;;35.00;28.25;;;;;;;;6489444;39;8925;-58
2024/02/08 03:15:01;;;;;;;;;32.25;30.50;;;;;;;;6489571;39;9032;-56
2024/02/08 03:21:05;;;;;;;;;32.50;30.75;;;;;;;;6488425;46;8866;-56
2024/02/08 03:27:13;;;;;;;;;31.25;29.75;;;;;;;;6488671;46;8884;-56
2024/02/08 03:33:16;;;;;;;;;33.25;29.50;;;;;;;;6489018;46;8948;-56
2024/02/08 03:39:24;;;;;;;;;29.75;28.25;;;;;;;;6488976;31;8875;-59
2024/02/08 03:45:28;;;;;;;;;31.25;31.25;;;;;;;;6488851;46;8871;-56
2024/02/08 03:51:37;;;;;;;;;39.00;33.75;;;;;;;;6489087;39;8868;-56
2024/02/08 03:57:40;;;;;;;;;40.00;33.50;;;;;;;;6489464;31;9109;-55
2024/02/08 04:03:53;;;;;;;;;31.75;29.50;;;;;;;;6487971;46;8893;-56
2024/02/08 04:10:10;;;;;;;;;26.00;24.00;;;;;;;;6489435;31;8942;-57
2024/02/08 04:54:26;;;;;;;;;32.75;31.75;;;;;;;;6488216;47;8909;-56
2024/02/08 05:07:14;;;;;;;;;37.00;31.75;;;;;;;;6484104;39;9140;-52
2024/02/08 05:13:17;;;;;;;;;40.50;37.50;;;;;;;;6490606;39;8916;-51
2024/02/08 05:19:25;;;;;;;;;40.50;34.50;;;;;;;;6492132;39;8977;-50
2024/02/08 18:04:02;;;;;;;;;22.33;17.33;;;;;;;;6485180;46;9024;-62
2024/02/08 18:10:16;;;;;;;;;21.75;19.75;;;;;;;;6492935;31;8956;-61
2024/02/08 18:16:30;;;;;;;;;19.00;16.50;;;;;;;;6493617;46;8837;-62
2024/02/08 18:22:33;;;;;;;;;18.75;16.50;;;;;;;;6491679;46;8905;-62
2024/02/08 18:28:40;;;;;;;;;23.00;22.00;;;;;;;;6493112;39;8885;-63
2024/02/08 18:34:49;;;;;;;;;25.00;23.75;;;;;;;;6493652;39;8908;-65
2024/02/08 18:41:01;;;;;;;;;25.50;22.00;;;;;;;;6492409;31;8949;-62
2024/02/08 18:47:08;;;;;;;;;20.25;19.75;;;;;;;;6493863;39;8884;-64
2024/02/08 18:53:12;;;;;;;;;26.25;24.50;;;;;;;;6492186;46;8836;-62
2024/02/08 18:59:17;;;;;;;;;26.25;26.00;;;;;;;;6492833;46;8909;-61
2024/02/08 19:05:25;;;;;;;;;26.50;23.00;;;;;;;;6491671;39;8876;-63
2024/02/08 19:11:34;;;;;;;;;28.50;25.00;;;;;;;;6490807;31;8876;-61
2024/02/08 19:17:45;;;;;;;;;27.00;23.25;;;;;;;;6491880;39;8848;-62
2024/02/08 19:24:00;;;;;;;;;27.00;26.00;;;;;;;;6491310;39;8897;-62
2024/02/08 19:30:12;;;;;;;;;27.25;22.00;;;;;;;;6491807;31;8916;-62
2024/02/08 19:36:23;;;;;;;;;26.50;25.75;;;;;;;;6491173;39;8873;-60
2024/02/08 19:42:31;;;;;;;;;24.75;23.00;;;;;;;;6491643;39;8865;-60
2024/02/08 19:48:52;;;;;;;;;33.25;30.50;;;;;;;;6490488;36;132746;-62
2024/02/08 19:55:02;;;;;;;;;28.75;25.00;;;;;;;;6491467;39;8886;-62
2024/02/08 20:01:10;;;;;;;;;28.25;24.75;;;;;;;;6491105;39;8968;-63
2024/02/08 20:07:15;;;;;;;;;20.50;20.25;;;;;;;;6490076;31;8849;-61
2024/02/08 20:13:24;;;;;;;;;28.00;24.75;;;;;;;;6491553;39;9434;-64
2024/02/08 20:19:30;;;;;;;;;26.25;24.25;;;;;;;;6490843;39;9044;-63
2024/02/08 20:25:39;;;;;;;;;32.75;28.25;;;;;;;;6491574;39;8876;-62
2024/02/08 20:31:45;;;;;;;;;30.67;26.00;;;;;;;;6491316;39;8925;-62
2024/02/08 20:37:51;;;;;;;;;27.75;26.25;;;;;;;;6489943;39;8897;-63
2024/02/08 20:44:10;;;;;;;;;29.75;28.50;;;;;;;;6491418;39;8897;-62
2024/02/08 20:50:24;;;;;;;;;30.00;29.00;;;;;;;;6491540;39;8881;-64
2024/02/08 20:56:52;;;;;;;;;31.00;31.00;;;;;;;;6492743;31;9056;-63
2024/02/08 21:03:01;;;;;;;;;32.00;28.25;;;;;;;;6492913;31;9092;-62
2024/02/08 21:09:09;;;;;;;;;27.50;26.50;;;;;;;;6492367;39;8869;-62
2024/02/08 21:15:22;;;;;;;;;37.50;35.75;;;;;;;;6492504;39;8857;-64
2024/02/08 21:21:31;;;;;;;;;35.75;32.75;;;;;;;;6493095;31;9000;-62
2024/02/08 21:27:34;;;;;;;;;33.00;31.00;;;;;;;;6491798;39;8858;-63
2024/02/08 21:33:40;;;;;;;;;36.00;34.25;;;;;;;;6491654;39;8866;-62
2024/02/08 21:39:50;;;;;;;;;41.25;36.75;;;;;;;;6493358;39;9113;-62
2024/02/08 21:45:54;;;;;;;;;40.00;35.00;;;;;;;;6492062;31;8984;-62
2024/02/08 21:51:57;;;;;;;;;40.50;35.75;;;;;;;;6495467;31;8846;-62
2024/02/08 21:58:13;;;;;;;;;38.25;36.75;;;;;;;;6492763;31;8945;-61
2024/02/08 22:04:21;;;;;;;;;42.25;39.50;;;;;;;;6491134;39;9612;-60
2024/02/08 22:10:26;;;;;;;;;38.75;37.00;;;;;;;;6493189;39;9616;-61
2024/02/08 22:16:30;;;;;;;;;42.50;38.00;;;;;;;;6492543;31;8886;-62
2024/02/08 22:22:38;;;;;;;;;42.75;38.00;;;;;;;;6491809;39;8887;-61
2024/02/08 22:28:48;;;;;;;;;40.00;37.50;;;;;;;;6491782;39;8843;-61
2024/02/08 22:34:54;;;;;;;;;38.50;33.50;;;;;;;;6492322;39;8815;-61
2024/02/08 22:40:58;;;;;;;;;35.50;32.00;;;;;;;;6491242;46;8995;-60
2024/02/08 22:47:13;;;;;;;;;36.00;33.67;;;;;;;;6491981;31;8972;-61
2024/02/08 22:53:23;;;;;;;;;35.75;29.75;;;;;;;;6491996;39;9562;-62
2024/02/08 22:59:33;;;;;;;;;38.50;33.75;;;;;;;;6490767;31;8938;-63
2024/02/08 23:05:53;;;;;;;;;34.50;34.00;;;;;;;;6492910;39;9455;-62
2024/02/08 23:12:05;;;;;;;;;41.00;30.00;;;;;;;;6491221;39;9499;-64
2024/02/08 23:18:18;;;;;;;;;33.75;32.75;;;;;;;;6492472;31;8874;-60
2024/02/08 23:24:25;;;;;;;;;36.75;28.50;;;;;;;;6491225;39;8891;-61
2024/02/08 23:30:33;;;;;;;;;42.00;39.00;;;;;;;;6490361;31;8990;-61
2024/02/08 23:36:42;;;;;;;;;41.25;37.25;;;;;;;;6492332;39;8919;-61
2024/02/08 23:43:00;;;;;;;;;33.00;31.50;;;;;;;;6490887;39;8882;-62
2024/02/08 23:49:06;;;;;;;;;31.00;29.00;;;;;;;;6491175;46;9036;-61
2024/02/08 23:55:13;;;;;;;;;30.25;28.50;;;;;;;;6491696;31;8874;-61
